createdAt,value
2023-05-14T00:01:05.598Z,100159.41
2023-05-14T00:03:32.629Z,100161.81
2023-05-14T00:05:59.677Z,100164.95
2023-05-14T00:08:26.556Z,100163.61
2023-05-14T00:10:53.511Z,100158.79
2023-05-14T00:13:20.306Z,100163.36
2023-05-14T00:15:47.257Z,100166.16
2023-05-14T00:18:14.469Z,100169.48
2023-05-14T00:20:41.313Z,100172.31
2023-05-14T00:23:08.376Z,100171.64
2023-05-14T00:25:36.447Z,100174.57
2023-05-14T00:28:04.139Z,100175.85
2023-05-14T00:30:31.078Z,100174.48
2023-05-14T00:32:58.037Z,100174.58
2023-05-14T00:35:24.965Z,100173.25
2023-05-14T00:37:52.040Z,100174.55
2023-05-14T00:40:19.277Z,100177.96
2023-05-14T00:42:46.094Z,100178.95
2023-05-14T00:45:13.149Z,100177.97
2023-05-14T00:47:40.294Z,100180.30
2023-05-14T00:50:08.266Z,100177.70
2023-05-14T00:52:35.161Z,100177.20
2023-05-14T00:55:04.463Z,100174.08
2023-05-14T00:57:31.415Z,100169.33
2023-05-14T00:59:58.881Z,100168.81
2023-05-14T01:02:26.598Z,100169.27
2023-05-14T01:04:53.702Z,100171.68
2023-05-14T01:07:23.727Z,100167.02
2023-05-14T01:10:04.317Z,100170.35
2023-05-14T01:12:39.191Z,100173.65
2023-05-14T01:15:20.298Z,100172.34
2023-05-14T01:17:55.751Z,100171.08
2023-05-14T01:20:23.319Z,100172.65
2023-05-14T01:22:50.490Z,100174.52
2023-05-14T01:25:17.610Z,100181.05
2023-05-14T01:27:59.815Z,100180.14
2023-05-14T01:30:37.526Z,100183.10
2023-05-14T01:33:10.701Z,100178.86
2023-05-14T01:35:37.554Z,100179.73
2023-05-14T01:38:05.639Z,100171.52
2023-05-14T01:40:32.798Z,100172.78
2023-05-14T01:43:00.514Z,100163.54
2023-05-14T01:45:27.515Z,100158.98
2023-05-14T01:47:54.496Z,100151.44
2023-05-14T01:50:21.652Z,100147.41
2023-05-14T01:52:49.076Z,100144.17
2023-05-14T01:55:16.156Z,100141.17
2023-05-14T01:57:43.074Z,100138.24
2023-05-14T02:00:10.950Z,100141.06
2023-05-14T02:02:44.063Z,100142.80
2023-05-14T02:05:12.120Z,100141.34
2023-05-14T02:07:39.087Z,100141.17
2023-05-14T02:10:06.862Z,100141.52
2023-05-14T02:12:34.098Z,100137.73
2023-05-14T02:15:01.229Z,100130.21
2023-05-14T02:17:28.122Z,100139.95
2023-05-14T02:19:55.163Z,100135.85
2023-05-14T02:22:22.023Z,100141.45
2023-05-14T02:24:49.982Z,100147.77
2023-05-14T02:27:17.953Z,100148.65
2023-05-14T02:29:45.056Z,100151.98
2023-05-14T02:32:12.000Z,100149.27
2023-05-14T02:34:39.365Z,100148.98
2023-05-14T02:37:06.634Z,100144.31
2023-05-14T02:39:33.639Z,100144.63
2023-05-14T02:42:00.652Z,100144.35
2023-05-14T02:44:27.636Z,100146.81
2023-05-14T02:46:54.513Z,100145.88
2023-05-14T02:49:22.056Z,100144.19
2023-05-14T02:51:48.998Z,100144.30
2023-05-14T02:54:16.891Z,100144.55
2023-05-14T02:56:43.829Z,100146.69
2023-05-14T02:59:10.901Z,100146.27
2023-05-14T03:01:38.159Z,100145.60
2023-05-14T03:04:05.759Z,100146.50
2023-05-14T03:06:32.643Z,100148.88
2023-05-14T03:08:59.486Z,100150.00
2023-05-14T03:11:26.359Z,100149.23
2023-05-14T03:13:53.419Z,100151.13
2023-05-14T03:16:20.528Z,100149.41
2023-05-14T03:18:47.482Z,100147.73
2023-05-14T03:21:14.570Z,100145.44
2023-05-14T03:23:41.724Z,100150.52
2023-05-14T03:26:08.675Z,100148.67
2023-05-14T03:28:35.643Z,100147.57
2023-05-14T03:31:02.573Z,100144.77
2023-05-14T03:33:31.376Z,100142.65
2023-05-14T03:35:58.430Z,100145.99
2023-05-14T03:38:25.243Z,100146.85
2023-05-14T03:40:52.246Z,100146.20
2023-05-14T03:43:19.174Z,100146.20
2023-05-14T03:45:47.160Z,100152.55
2023-05-14T03:48:17.036Z,100151.77
2023-05-14T03:50:44.096Z,100154.69
2023-05-14T03:53:11.927Z,100157.04
2023-05-14T03:55:38.820Z,100159.45
2023-05-14T03:58:14.238Z,100162.66
2023-05-14T04:00:42.331Z,100158.45
2023-05-14T04:03:11.387Z,100152.55
2023-05-14T04:05:38.424Z,100145.08
2023-05-14T04:08:06.554Z,100134.10
2023-05-14T04:10:33.567Z,100128.31
2023-05-14T04:13:00.815Z,100134.38
2023-05-14T04:15:31.958Z,100146.48
2023-05-14T04:17:58.924Z,100151.77
2023-05-14T04:20:26.033Z,100149.73
2023-05-14T04:22:54.137Z,100148.55
2023-05-14T04:25:21.087Z,100144.49
2023-05-14T04:27:48.055Z,100146.08
2023-05-14T04:30:15.411Z,100147.40
2023-05-14T04:32:42.784Z,100150.66
2023-05-14T04:35:11.268Z,100146.81
2023-05-14T04:37:38.170Z,100145.60
2023-05-14T04:40:06.844Z,100150.13
2023-05-14T04:42:34.062Z,100150.77
2023-05-14T04:45:01.213Z,100152.95
2023-05-14T04:47:28.286Z,100151.67
2023-05-14T04:49:55.522Z,100151.29
2023-05-14T04:52:22.470Z,100149.32
2023-05-14T04:54:49.350Z,100155.24
2023-05-14T04:57:16.689Z,100153.51
2023-05-14T04:59:43.573Z,100157.70
2023-05-14T05:02:10.580Z,100160.16
2023-05-14T05:04:37.426Z,100159.50
2023-05-14T05:07:05.826Z,100155.20
2023-05-14T05:09:32.634Z,100157.41
2023-05-14T05:11:59.512Z,100155.27
2023-05-14T05:14:27.210Z,100159.09
2023-05-14T05:16:54.023Z,100159.06
2023-05-14T05:19:26.555Z,100160.16
2023-05-14T05:21:59.496Z,100160.52
2023-05-14T05:24:26.552Z,100158.12
2023-05-14T05:26:54.123Z,100161.94
2023-05-14T05:29:21.090Z,100159.63
2023-05-14T05:31:48.603Z,100158.98
2023-05-14T05:34:15.686Z,100158.83
2023-05-14T05:36:42.533Z,100160.35
2023-05-14T05:39:09.583Z,100156.62
2023-05-14T05:41:36.374Z,100156.71
2023-05-14T05:44:03.278Z,100158.95
2023-05-14T05:46:30.135Z,100161.66
2023-05-14T05:48:57.201Z,100160.68
2023-05-14T05:51:24.273Z,100159.73
2023-05-14T05:53:51.396Z,100161.28
2023-05-14T05:56:18.345Z,100154.85
2023-05-14T05:58:45.298Z,100155.66
2023-05-14T06:01:12.249Z,100150.69
2023-05-14T06:03:39.322Z,100153.14
2023-05-14T06:06:06.762Z,100157.88
2023-05-14T06:08:33.922Z,100156.29
2023-05-14T06:11:00.873Z,100160.73
2023-05-14T06:13:27.822Z,100160.73
2023-05-14T06:15:54.639Z,100161.63
2023-05-14T06:18:21.450Z,100161.29
2023-05-14T06:20:48.374Z,100165.09
2023-05-14T06:23:15.227Z,100162.28
2023-05-14T06:25:42.173Z,100164.09
2023-05-14T06:28:09.123Z,100164.90
2023-05-14T06:30:36.078Z,100161.10
2023-05-14T06:33:02.941Z,100159.78
2023-05-14T06:35:29.898Z,100161.50
2023-05-14T06:37:57.031Z,100160.42
2023-05-14T06:40:24.118Z,100155.77
2023-05-14T06:42:51.263Z,100156.60
2023-05-14T06:45:18.193Z,100160.13
2023-05-14T06:47:45.101Z,100159.86
2023-05-14T06:50:12.105Z,100160.59
2023-05-14T06:52:38.953Z,100158.37
2023-05-14T06:55:06.415Z,100159.87
2023-05-14T06:57:34.380Z,100161.28
2023-05-14T07:00:03.250Z,100157.93
2023-05-14T07:02:30.972Z,100157.88
2023-05-14T07:04:57.995Z,100158.59
2023-05-14T07:07:24.875Z,100157.71
2023-05-14T07:09:51.908Z,100156.80
2023-05-14T07:12:18.837Z,100156.75
2023-05-14T07:14:46.842Z,100150.30
2023-05-14T07:17:13.914Z,100150.42
2023-05-14T07:19:41.064Z,100146.70
2023-05-14T07:22:07.878Z,100146.27
2023-05-14T07:24:34.831Z,100138.83
2023-05-14T07:27:02.014Z,100138.66
2023-05-14T07:29:30.474Z,100135.86
2023-05-14T07:31:57.328Z,100137.35
2023-05-14T07:34:24.279Z,100135.86
2023-05-14T07:36:52.457Z,100129.35
2023-05-14T07:39:19.312Z,100128.48
2023-05-14T07:41:46.177Z,100124.06
2023-05-14T07:44:13.414Z,100126.00
2023-05-14T07:46:41.145Z,100126.62
2023-05-14T07:49:08.130Z,100127.94
2023-05-14T07:51:35.046Z,100122.69
2023-05-14T07:54:02.130Z,100119.77
2023-05-14T07:56:29.085Z,100116.02
2023-05-14T07:58:56.759Z,100118.66
2023-05-14T08:01:23.808Z,100120.42
2023-05-14T08:03:50.972Z,100122.98
2023-05-14T08:06:18.300Z,100118.83
2023-05-14T08:08:45.285Z,100117.13
2023-05-14T08:11:12.158Z,100116.90
2023-05-14T08:13:39.179Z,100114.42
2023-05-14T08:16:07.249Z,100114.50
2023-05-14T08:18:34.234Z,100111.06
2023-05-14T08:21:03.319Z,100110.49
2023-05-14T08:23:30.713Z,100110.89
2023-05-14T08:25:57.727Z,100108.86
2023-05-14T08:28:24.558Z,100104.50
2023-05-14T08:30:51.712Z,100101.31
2023-05-14T08:33:18.719Z,100101.78
2023-05-14T08:35:45.563Z,100101.30
2023-05-14T08:38:12.482Z,100101.11
2023-05-14T08:40:40.072Z,100097.55
2023-05-14T08:43:06.907Z,100094.55
2023-05-14T08:45:34.473Z,100093.84
2023-05-14T08:48:02.227Z,100091.45
2023-05-14T08:50:30.647Z,100093.34
2023-05-14T08:52:58.076Z,100093.66
2023-05-14T08:55:26.304Z,100092.27
2023-05-14T08:57:53.312Z,100089.84
2023-05-14T09:00:20.668Z,100086.44
2023-05-14T09:02:47.751Z,100083.49
2023-05-14T09:05:14.710Z,100083.56
2023-05-14T09:07:41.735Z,100081.99
2023-05-14T09:10:09.404Z,100078.80
2023-05-14T09:12:36.371Z,100075.18
2023-05-14T09:15:03.720Z,100071.08
2023-05-14T09:17:30.871Z,100070.35
2023-05-14T09:19:57.747Z,100066.08
2023-05-14T09:22:24.690Z,100065.44
2023-05-14T09:25:14.873Z,100057.61
2023-05-14T09:27:41.790Z,100059.08
2023-05-14T09:30:10.764Z,100053.13
2023-05-14T09:32:44.166Z,100050.43
2023-05-14T09:35:12.060Z,100052.08
2023-05-14T09:37:42.726Z,100050.26
2023-05-14T09:40:11.044Z,100046.44
2023-05-14T09:42:38.412Z,100042.31
2023-05-14T09:45:09.954Z,100042.01
2023-05-14T09:47:38.035Z,100039.23
2023-05-14T09:50:05.741Z,100036.70
2023-05-14T09:52:32.928Z,100039.89
2023-05-14T09:55:00.272Z,100038.04
2023-05-14T09:57:27.351Z,100035.95
2023-05-14T09:59:54.258Z,100035.38
2023-05-14T10:02:21.080Z,100034.61
2023-05-14T10:04:49.201Z,100034.29
2023-05-14T10:07:16.803Z,100032.13
2023-05-14T10:09:44.024Z,100029.50
2023-05-14T10:12:11.173Z,100028.33
2023-05-14T10:14:41.592Z,100030.27
2023-05-14T10:17:10.307Z,100030.85
2023-05-14T10:19:37.453Z,100027.33
2023-05-14T10:22:05.593Z,100030.48
2023-05-14T10:24:33.079Z,100028.30
2023-05-14T10:27:00.246Z,100026.32
2023-05-14T10:29:38.239Z,100022.91
2023-05-14T10:32:07.163Z,100020.13
2023-05-14T10:34:38.532Z,100015.73
2023-05-14T10:37:07.275Z,100024.06
2023-05-14T10:39:57.346Z,100023.42
2023-05-14T10:42:29.044Z,100019.71
2023-05-14T10:44:58.948Z,100020.27
2023-05-14T10:47:27.800Z,100018.71
2023-05-14T10:49:56.837Z,100015.08
2023-05-14T10:52:23.935Z,100012.42
2023-05-14T10:55:00.656Z,100009.99
2023-05-14T10:57:32.439Z,100010.65
2023-05-14T11:00:00.406Z,100010.08
2023-05-14T11:02:28.651Z,100013.26
2023-05-14T11:04:57.616Z,100009.46
2023-05-14T11:07:27.852Z,100007.86
2023-05-14T11:10:00.475Z,100003.04
2023-05-14T11:12:28.158Z,99999.48
2023-05-14T11:14:57.265Z,100004.17
2023-05-14T11:17:25.964Z,100003.14
2023-05-14T11:19:52.939Z,100001.88
2023-05-14T11:22:19.861Z,99997.86
2023-05-14T11:24:46.768Z,99995.11
2023-05-14T11:27:14.269Z,99998.55
2023-05-14T11:29:46.759Z,99998.73
2023-05-14T11:32:14.686Z,99997.67
2023-05-14T11:34:42.292Z,99992.53
2023-05-14T11:37:10.465Z,99993.10
2023-05-14T11:39:40.594Z,99990.77
2023-05-14T11:42:17.152Z,99986.56
2023-05-14T11:44:44.833Z,99987.77
2023-05-14T11:47:11.890Z,99984.02
2023-05-14T11:49:38.795Z,99984.42
2023-05-14T11:52:06.711Z,99982.73
2023-05-14T11:54:34.038Z,99985.92
2023-05-14T11:57:07.508Z,99983.40
2023-05-14T11:59:34.498Z,99982.45
2023-05-14T12:02:02.371Z,99978.52
2023-05-14T12:04:29.525Z,99979.08
2023-05-14T12:06:58.665Z,99978.39
2023-05-14T12:09:26.176Z,99976.35
2023-05-14T12:11:53.100Z,99972.30
2023-05-14T12:14:23.654Z,99971.73
2023-05-14T12:16:51.061Z,99971.83
2023-05-14T12:19:21.031Z,99969.67
2023-05-14T12:21:48.346Z,99964.70
2023-05-14T12:24:17.655Z,99963.08
2023-05-14T12:26:49.057Z,99962.09
2023-05-14T12:29:16.149Z,99962.08
2023-05-14T12:31:47.726Z,99961.54
2023-05-14T12:34:14.965Z,99959.77
2023-05-14T12:36:42.381Z,99958.58
2023-05-14T12:39:09.791Z,99953.92
2023-05-14T12:41:36.772Z,99951.93
2023-05-14T12:44:04.582Z,99951.48
2023-05-14T12:46:31.468Z,99949.61
2023-05-14T12:48:58.482Z,99951.31
2023-05-14T12:51:25.477Z,99947.62
2023-05-14T12:53:54.465Z,99950.48
2023-05-14T12:56:22.159Z,99946.41
2023-05-14T12:58:49.177Z,99945.19
2023-05-14T13:01:16.827Z,99945.86
2023-05-14T13:03:45.175Z,99940.74
2023-05-14T13:06:14.517Z,99939.41
2023-05-14T13:08:42.691Z,99935.33
2023-05-14T13:11:09.787Z,99938.86
2023-05-14T13:13:36.734Z,99937.20
2023-05-14T13:16:03.778Z,99936.64
2023-05-14T13:18:30.794Z,99937.28
2023-05-14T13:21:00.796Z,99938.27
2023-05-14T13:23:27.622Z,99939.66
2023-05-14T13:25:54.490Z,99938.29
2023-05-14T13:28:21.348Z,99937.65
2023-05-14T13:31:04.145Z,99936.15
2023-05-14T13:33:31.141Z,99938.92
2023-05-14T13:35:57.952Z,99941.95
2023-05-14T13:38:24.866Z,99942.27
2023-05-14T13:40:51.953Z,99942.07
2023-05-14T13:43:18.844Z,99939.06
2023-05-14T13:45:45.928Z,99941.41
2023-05-14T13:48:12.897Z,99941.30
2023-05-14T13:50:39.732Z,99940.91
2023-05-14T13:53:06.578Z,99941.59
2023-05-14T13:55:33.432Z,99940.64
2023-05-14T13:58:02.100Z,99933.94
2023-05-14T14:00:28.921Z,99934.75
2023-05-14T14:02:55.870Z,99933.74
2023-05-14T14:05:24.032Z,99929.23
2023-05-14T14:07:52.922Z,99931.33
2023-05-14T14:10:21.842Z,99929.94
2023-05-14T14:12:48.842Z,99927.98
2023-05-14T14:15:15.792Z,99921.57
2023-05-14T14:17:42.937Z,99923.27
2023-05-14T14:20:10.498Z,99922.34
2023-05-14T14:22:37.470Z,99925.72
2023-05-14T14:25:04.923Z,99922.61
2023-05-14T14:27:34.063Z,99925.41
2023-05-14T14:30:00.911Z,99924.67
2023-05-14T14:32:27.749Z,99922.26
2023-05-14T14:34:54.888Z,99920.19
2023-05-14T14:37:23.174Z,99917.25
2023-05-14T14:39:50.259Z,99918.64
2023-05-14T14:42:17.090Z,99920.03
2023-05-14T14:44:44.021Z,99916.84
2023-05-14T14:47:10.885Z,99916.95
2023-05-14T14:49:37.787Z,99917.11
2023-05-14T14:52:04.992Z,99914.48
2023-05-14T14:54:31.870Z,99915.05
2023-05-14T14:56:58.817Z,99912.94
2023-05-14T14:59:25.819Z,99914.67
2023-05-14T15:01:55.403Z,99911.38
2023-05-14T15:04:22.267Z,99909.85
2023-05-14T15:06:49.142Z,99906.23
2023-05-14T15:09:16.449Z,99904.76
2023-05-14T15:11:44.484Z,99903.36
2023-05-14T15:14:11.346Z,99906.02
2023-05-14T15:16:38.419Z,99903.88
2023-05-14T15:19:05.496Z,99904.20
2023-05-14T15:21:32.916Z,99901.89
2023-05-14T15:23:59.984Z,99900.67
2023-05-14T15:26:27.066Z,99901.27
2023-05-14T15:28:54.060Z,99897.50
2023-05-14T15:31:21.477Z,99896.63
2023-05-14T15:33:48.781Z,99895.41
2023-05-14T15:36:15.634Z,99895.15
2023-05-14T15:38:42.630Z,99895.61
2023-05-14T15:41:09.441Z,99900.09
2023-05-14T15:43:36.385Z,99902.06
2023-05-14T15:46:03.227Z,99901.04
2023-05-14T15:48:30.131Z,99895.84
2023-05-14T15:50:56.971Z,99887.07
2023-05-14T15:53:23.888Z,99885.70
2023-05-14T15:55:50.930Z,99884.77
2023-05-14T15:58:17.985Z,99880.63
2023-05-14T16:00:44.836Z,99879.38
2023-05-14T16:03:12.506Z,99874.95
2023-05-14T16:05:39.503Z,99876.80
2023-05-14T16:08:06.781Z,99878.38
2023-05-14T16:10:33.622Z,99879.67
2023-05-14T16:13:00.573Z,99876.69
2023-05-14T16:15:27.437Z,99877.96
2023-05-14T16:17:54.355Z,99878.59
2023-05-14T16:20:21.375Z,99879.31
2023-05-14T16:22:48.333Z,99881.70
2023-05-14T16:25:15.283Z,99879.63
2023-05-14T16:27:42.332Z,99876.81
2023-05-14T16:30:09.989Z,99879.77
2023-05-14T16:32:36.878Z,99877.98
2023-05-14T16:35:04.505Z,99875.77
2023-05-14T16:37:31.408Z,99872.56
2023-05-14T16:39:58.266Z,99870.33
2023-05-14T16:42:25.359Z,99873.61
2023-05-14T16:44:52.309Z,99871.27
2023-05-14T16:47:19.178Z,99870.38
2023-05-14T16:49:46.034Z,99870.54
2023-05-14T16:52:12.954Z,99871.73
2023-05-14T16:54:39.767Z,99872.65
2023-05-14T16:57:06.752Z,99875.23
2023-05-14T16:59:33.627Z,99873.94
2023-05-14T17:02:00.805Z,99874.77
2023-05-14T17:04:27.989Z,99873.69
2023-05-14T17:06:55.999Z,99872.58
2023-05-14T17:09:22.898Z,99871.74
2023-05-14T17:11:49.717Z,99874.30
2023-05-14T17:14:16.752Z,99878.05
2023-05-14T17:16:43.598Z,99876.48
2023-05-14T17:19:10.736Z,99879.84
2023-05-14T17:21:37.903Z,99881.35
2023-05-14T17:24:05.539Z,99882.66
2023-05-14T17:26:32.428Z,99882.75
2023-05-14T17:28:59.373Z,99884.55
2023-05-14T17:31:26.290Z,99881.66
2023-05-14T17:33:53.166Z,99881.69
2023-05-14T17:36:20.121Z,99882.91
2023-05-14T17:38:47.271Z,99881.56
2023-05-14T17:41:14.133Z,99887.56
2023-05-14T17:43:41.103Z,99888.00
2023-05-14T17:46:08.044Z,99889.47
2023-05-14T17:48:34.995Z,99890.52
2023-05-14T17:51:02.043Z,99890.41
2023-05-14T17:53:28.869Z,99890.67
2023-05-14T17:55:55.842Z,99893.00
2023-05-14T17:58:22.682Z,99896.91
2023-05-14T18:00:49.573Z,99893.35
2023-05-14T18:03:16.634Z,99892.54
2023-05-14T18:05:43.724Z,99893.94
2023-05-14T18:08:10.730Z,99895.09
2023-05-14T18:10:37.769Z,99897.32
2023-05-14T18:13:04.665Z,99898.13
2023-05-14T18:15:31.824Z,99897.55
2023-05-14T18:17:58.787Z,99902.46
2023-05-14T18:20:25.719Z,99900.92
2023-05-14T18:22:52.642Z,99903.14
2023-05-14T18:25:19.537Z,99899.98
2023-05-14T18:27:47.247Z,99901.65
2023-05-14T18:30:14.932Z,99899.55
2023-05-14T18:32:43.727Z,99898.01
2023-05-14T18:35:11.472Z,99897.16
2023-05-14T18:37:38.431Z,99898.27
2023-05-14T18:40:07.075Z,99896.99
2023-05-14T18:42:34.602Z,99901.38
2023-05-14T18:45:01.685Z,99897.80
2023-05-14T18:47:28.737Z,99898.09
2023-05-14T18:49:58.254Z,99896.66
2023-05-14T18:52:26.381Z,99897.09
2023-05-14T18:54:54.869Z,99895.38
2023-05-14T18:57:21.958Z,99893.30
2023-05-14T18:59:48.963Z,99898.66
2023-05-14T19:02:16.440Z,99892.23
2023-05-14T19:04:52.357Z,99891.82
2023-05-14T19:07:20.816Z,99892.08
2023-05-14T19:09:47.773Z,99891.50
2023-05-14T19:12:16.360Z,99893.37
2023-05-14T19:14:43.369Z,99891.02
2023-05-14T19:17:10.276Z,99891.91
2023-05-14T19:19:37.968Z,99888.87
2023-05-14T19:22:05.563Z,99890.60
2023-05-14T19:24:32.382Z,99890.48
2023-05-14T19:26:59.247Z,99895.03
2023-05-14T19:29:26.200Z,99897.84
2023-05-14T19:31:53.129Z,99899.25
2023-05-14T19:34:19.996Z,99898.27
2023-05-14T19:36:46.866Z,99899.07
2023-05-14T19:39:13.780Z,99897.53
2023-05-14T19:41:40.774Z,99896.05
2023-05-14T19:44:07.624Z,99895.61
2023-05-14T19:46:34.573Z,99891.52
2023-05-14T19:49:01.480Z,99889.77
2023-05-14T19:51:28.379Z,99891.02
2023-05-14T19:53:55.260Z,99888.61
2023-05-14T19:56:23.189Z,99885.86
2023-05-14T19:58:51.278Z,99889.35
2023-05-14T20:01:19.171Z,99887.41
2023-05-14T20:03:47.075Z,99885.99
2023-05-14T20:06:14.046Z,99887.75
2023-05-14T20:08:41.281Z,99887.59
2023-05-14T20:11:08.178Z,99882.44
2023-05-14T20:13:36.556Z,99883.30
2023-05-14T20:16:03.395Z,99883.58
2023-05-14T20:18:30.532Z,99881.79
2023-05-14T20:20:57.450Z,99884.64
2023-05-14T20:23:24.345Z,99881.02
2023-05-14T20:25:51.358Z,99881.66
2023-05-14T20:28:18.212Z,99878.37
2023-05-14T20:30:45.094Z,99876.76
2023-05-14T20:33:13.466Z,99874.61
2023-05-14T20:35:43.886Z,99874.08
2023-05-14T20:38:12.884Z,99867.12
2023-05-14T20:40:40.025Z,99863.73
2023-05-14T20:43:06.894Z,99863.38
2023-05-14T20:45:33.758Z,99861.68
2023-05-14T20:48:00.834Z,99860.76
2023-05-14T20:50:28.109Z,99858.17
2023-05-14T20:52:55.440Z,99859.73
2023-05-14T20:55:22.557Z,99855.80
2023-05-14T20:57:49.770Z,99856.48
2023-05-14T21:00:17.093Z,99860.92
2023-05-14T21:02:44.074Z,99860.41
2023-05-14T21:05:11.174Z,99860.64
2023-05-14T21:07:39.520Z,99863.06
2023-05-14T21:10:08.364Z,99862.70
2023-05-14T21:12:35.256Z,99862.86
2023-05-14T21:15:02.107Z,99856.48
2023-05-14T21:17:29.030Z,99856.37
2023-05-14T21:19:56.081Z,99857.58
2023-05-14T21:22:22.953Z,99854.73
2023-05-14T21:24:51.126Z,99852.80
2023-05-14T21:27:17.972Z,99850.69
2023-05-14T21:29:47.721Z,99845.91
2023-05-14T21:32:14.748Z,99849.39
2023-05-14T21:34:41.633Z,99848.37
2023-05-14T21:37:08.519Z,99844.60
2023-05-14T21:39:35.604Z,99841.79
2023-05-14T21:42:02.428Z,99840.36
2023-05-14T21:44:29.229Z,99839.98
2023-05-14T21:46:56.094Z,99841.36
2023-05-14T21:49:22.920Z,99841.03
2023-05-14T21:51:53.286Z,99837.38
2023-05-14T21:54:21.094Z,99843.48
2023-05-14T21:56:47.977Z,99840.90
2023-05-14T21:59:14.840Z,99840.02
2023-05-14T22:02:04.784Z,99842.00
2023-05-14T22:04:28.771Z,99844.27
2023-05-14T22:06:56.026Z,99839.67
2023-05-14T22:09:22.893Z,99843.44
2023-05-14T22:11:49.808Z,99842.61
2023-05-14T22:14:16.761Z,99839.58
2023-05-14T22:16:44.073Z,99839.77
2023-05-14T22:19:11.519Z,99833.63
2023-05-14T22:23:54.752Z,99834.92
2023-05-14T22:26:24.654Z,99829.69
2023-05-14T22:28:52.832Z,99829.90
2023-05-14T22:31:19.847Z,99827.29
2023-05-14T22:33:46.837Z,99829.35
2023-05-14T22:36:13.793Z,99833.62
2023-05-14T22:38:41.365Z,99829.20
2023-05-14T22:41:08.206Z,99827.42
2023-05-14T22:43:35.254Z,99826.40
2023-05-14T22:46:02.240Z,99827.67
2023-05-14T22:48:29.208Z,99825.83
2023-05-14T22:50:56.050Z,99821.82
2023-05-14T22:53:24.393Z,99823.41
2023-05-14T22:55:52.074Z,99821.73
2023-05-14T22:58:19.214Z,99821.63
2023-05-14T23:00:46.303Z,99820.23
2023-05-14T23:03:13.244Z,99817.25
2023-05-14T23:05:40.154Z,99818.36
2023-05-14T23:08:07.112Z,99819.89
2023-05-14T23:10:35.623Z,99815.09
2023-05-14T23:13:04.198Z,99815.91
2023-05-14T23:15:31.155Z,99813.91
2023-05-14T23:17:58.078Z,99816.91
2023-05-14T23:20:25.167Z,99817.33
2023-05-14T23:22:52.597Z,99817.66
2023-05-14T23:25:20.078Z,99816.28
2023-05-14T23:27:47.034Z,99816.96
2023-05-14T23:30:14.086Z,99815.70
2023-05-14T23:32:41.074Z,99810.75
2023-05-14T23:35:08.521Z,99817.67
2023-05-14T23:37:40.366Z,99817.34
2023-05-14T23:40:09.060Z,99813.94
2023-05-14T23:42:36.068Z,99812.45
2023-05-14T23:45:02.972Z,99814.45
2023-05-14T23:47:29.848Z,99816.30
2023-05-14T23:49:56.868Z,99821.55
2023-05-14T23:52:23.806Z,99816.48
2023-05-14T23:54:50.683Z,99821.80
2023-05-14T23:57:17.556Z,99821.54
2023-05-14T23:59:44.382Z,99819.52
